Time;durP1;ratioP1;P1;durP2;ratioP2;P2;SDS_P1;SDS_P2;PMS_P1;PMS_P2;Temp;Humidity;BMP_temperature;BMP_pressure;BME280_temperature;BME280_humidity;BME280_pressure;Samples;Min_cycle;Max_cycle;Signal;HPM_P1;HPM_P2
2023/08/27 00:01:31;;;;;;;;;;;19.80;67.20;;;15.80;100.00;95097.38;5036441;28;19994;-46
2023/08/27 00:03:57;;;;;;;;;;;19.80;67.30;;;15.81;100.00;95096.28;5034872;28;19908;-49
2023/08/27 00:06:22;;;;;;;;;;;19.80;67.20;;;15.80;100.00;95110.81;5035973;28;20007;-53
2023/08/27 00:08:48;;;;;;;;;;;19.80;67.30;;;15.76;100.00;95123.25;5017826;28;19916;-52
2023/08/27 00:11:14;;;;;;;;;;;19.80;67.50;;;15.72;100.00;95131.13;5034547;28;19919;-53
2023/08/27 00:13:40;;;;;;;;;;;19.70;67.60;;;15.67;100.00;95105.22;5032725;28;19936;-50
2023/08/27 00:16:06;;;;;;;;;;;19.60;67.70;;;15.70;100.00;95114.56;5026965;28;20000;-49
2023/08/27 00:18:32;;;;;;;;;;;19.60;67.90;;;15.64;100.00;95092.38;5036348;28;20007;-50
2023/08/27 00:20:58;;;;;;;;;;;19.60;67.90;;;15.60;100.00;95069.13;5036331;28;19960;-51
2023/08/27 00:23:24;;;;;;;;;;;19.50;67.80;;;15.55;100.00;95088.84;5035554;28;19913;-50
2023/08/27 00:25:51;;;;;;;;;;;19.50;68.70;;;15.55;100.00;95099.59;5035336;28;19913;-47
2023/08/27 00:28:17;;;;;;;;;;;19.50;68.00;;;15.55;100.00;95091.53;5034234;28;19986;-49
2023/08/27 00:30:43;;;;;;;;;;;19.50;68.10;;;15.54;100.00;95081.09;5035451;28;19948;-47
2023/08/27 00:33:09;;;;;;;;;;;19.40;68.20;;;15.55;100.00;95075.44;5034428;28;19909;-50
2023/08/27 00:35:36;;;;;;;;;;;19.50;68.30;;;15.54;100.00;95060.41;5035302;28;19916;-48
2023/08/27 00:38:05;;;;;;;;;;;19.40;68.30;;;15.55;100.00;95055.84;5035041;28;19913;-48
2023/08/27 00:40:31;;;;;;;;;;;19.40;68.30;;;15.54;100.00;95052.34;5024210;28;19909;-49
2023/08/27 00:42:57;;;;;;;;;;;19.40;68.30;;;15.49;100.00;95061.34;5035158;28;20324;-49
2023/08/27 00:45:24;;;;;;;;;;;19.40;68.30;;;15.51;100.00;95058.34;5034224;28;19955;-52
2023/08/27 00:47:50;;;;;;;;;;;19.40;68.30;;;15.48;100.00;95050.91;5011680;28;19924;-47
2023/08/27 00:50:17;;;;;;;;;;;19.40;68.30;;;15.48;100.00;95069.69;5035202;28;19908;-48
2023/08/27 00:52:43;;;;;;;;;;;19.40;68.30;;;15.44;100.00;95063.34;5034064;28;19956;-48
2023/08/27 00:55:09;;;;;;;;;;;19.40;69.20;;;15.42;100.00;95074.41;5034776;28;19913;-50
2023/08/27 00:57:38;;;;;;;;;;;19.30;68.30;;;15.43;100.00;95061.78;5034074;28;19959;-48
2023/08/27 01:00:10;;;;;;;;;;;19.30;68.30;;;15.41;100.00;95058.59;5017563;28;19920;-49
2023/08/27 01:02:38;;;;;;;;;;;19.30;68.40;;;15.41;100.00;95063.97;5017565;28;19908;-50
2023/08/27 01:05:05;;;;;;;;;;;19.30;68.40;;;15.42;100.00;95082.47;5033591;28;20183;-51
2023/08/27 01:07:46;;;;;;;;;;;19.40;68.50;;;15.42;100.00;95079.78;5027802;28;20463;-45
2023/08/27 01:10:36;;;;;;;;;;;19.30;68.40;;;15.44;100.00;95085.63;5029526;28;19917;-50
2023/08/27 01:13:12;;;;;;;;;;;19.30;68.50;;;15.46;100.00;95085.31;5034740;28;19913;-48
2023/08/27 01:15:40;;;;;;;;;;;19.30;68.60;;;15.42;100.00;95081.69;5014073;28;19908;-50
2023/08/27 01:18:10;;;;;;;;;;;19.40;68.70;;;15.43;100.00;95085.94;5028124;28;20390;-46
2023/08/27 01:20:36;;;;;;;;;;;19.30;68.60;;;15.40;100.00;95076.59;5034439;28;20012;-48
2023/08/27 01:23:02;;;;;;;;;;;19.40;68.70;;;15.40;100.00;95073.13;5033315;28;20043;-51
2023/08/27 01:25:43;;;;;;;;;;;19.40;68.80;;;15.43;100.00;95059.88;5034655;28;19939;-48
2023/08/27 01:28:33;;;;;;;;;;;19.40;68.70;;;15.44;100.00;95060.69;5033070;28;19951;-49
2023/08/27 01:31:17;;;;;;;;;;;19.40;68.80;;;15.42;100.00;95074.41;5034828;28;20401;-51
2023/08/27 01:33:49;;;;;;;;;;;19.30;68.70;;;15.38;100.00;95092.22;5033616;28;19948;-49
2023/08/27 01:36:19;;;;;;;;;;;19.40;68.80;;;15.36;100.00;95107.84;5017046;28;20003;-50
2023/08/27 01:38:45;;;;;;;;;;;19.30;68.90;;;15.37;100.00;95130.09;5016874;28;20007;-48
2023/08/27 01:41:10;;;;;;;;;;;19.30;68.90;;;15.35;100.00;95140.34;5015100;28;20383;-47
2023/08/27 01:43:36;;;;;;;;;;;19.30;68.90;;;15.33;100.00;95151.38;5034706;28;19916;-48
2023/08/27 01:46:03;;;;;;;;;;;19.30;69.00;;;15.36;100.00;95148.09;5034306;28;20386;-50
2023/08/27 01:48:29;;;;;;;;;;;19.30;69.10;;;15.32;100.00;95163.19;5033894;28;20011;-47
2023/08/27 01:50:55;;;;;;;;;;;19.30;69.10;;;15.34;100.00;95162.91;5034099;28;19991;-44
2023/08/27 01:53:20;;;;;;;;;;;19.30;69.10;;;15.31;100.00;95163.50;5023114;28;19909;-48
2023/08/27 01:55:46;;;;;;;;;;;19.30;69.20;;;15.33;100.00;95166.69;5030388;28;20341;-48
2023/08/27 01:58:12;;;;;;;;;;;19.30;69.20;;;15.28;100.00;95168.38;5032974;28;19921;-51
2023/08/27 02:00:37;;;;;;;;;;;19.30;69.30;;;15.30;100.00;95175.34;5034188;28;20319;-48
2023/08/27 02:03:05;;;;;;;;;;;19.20;69.30;;;15.27;100.00;95179.44;5033215;28;19964;-48
2023/08/27 02:05:31;;;;;;;;;;;19.30;69.40;;;15.27;100.00;95176.75;5034069;28;19908;-51
2023/08/27 02:07:56;;;;;;;;;;;19.20;69.40;;;15.24;100.00;95196.13;5034627;28;19962;-51
2023/08/27 02:10:22;;;;;;;;;;;19.20;69.60;;;15.23;100.00;95195.34;5041481;28;19915;-49
2023/08/27 02:12:48;;;;;;;;;;;19.20;69.60;;;15.21;100.00;95194.84;5032852;28;20000;-51
2023/08/27 02:15:14;;;;;;;;;;;19.20;69.70;;;15.23;100.00;95194.53;5019817;28;19920;-51
2023/08/27 02:17:39;;;;;;;;;;;19.20;69.90;;;15.19;100.00;95196.25;5041274;28;19913;-48
2023/08/27 02:20:09;;;;;;;;;;;19.20;70.00;;;15.19;100.00;95180.16;5033406;28;19909;-51
2023/08/27 02:22:35;;;;;;;;;;;19.10;70.00;;;15.23;100.00;95173.06;5032114;28;20367;-47
2023/08/27 02:25:01;;;;;;;;;;;19.10;70.00;;;15.20;100.00;95166.44;5033504;28;20363;-49
2023/08/27 02:27:27;;;;;;;;;;;19.10;70.10;;;15.17;100.00;95161.69;5032483;28;19908;-49
2023/08/27 02:29:52;;;;;;;;;;;19.10;70.10;;;15.20;100.00;95154.91;5033099;28;20331;-48
2023/08/27 02:32:18;;;;;;;;;;;19.10;70.10;;;15.21;100.00;95162.66;5033463;28;20016;-48
2023/08/27 02:34:44;;;;;;;;;;;19.10;70.10;;;15.20;100.00;95152.25;5042513;28;19916;-47
2023/08/27 02:37:09;;;;;;;;;;;19.10;70.10;;;15.16;100.00;95159.28;5033268;28;19920;-47
2023/08/27 02:39:35;;;;;;;;;;;19.10;70.00;;;15.14;100.00;95159.59;5032015;28;19909;-49
2023/08/27 02:42:02;;;;;;;;;;;19.10;70.00;;;15.13;100.00;95160.69;5033048;28;19995;-51
2023/08/27 02:44:28;;;;;;;;;;;19.00;69.90;;;15.15;100.00;95163.06;5032650;28;20481;-46
2023/08/27 02:46:54;;;;;;;;;;;19.00;69.90;;;15.12;100.00;95163.69;5036595;28;19928;-51
2023/08/27 02:49:19;;;;;;;;;;;19.10;70.00;;;15.10;100.00;95161.28;5033022;28;19908;-49
2023/08/27 02:51:45;;;;;;;;;;;19.10;69.90;;;15.11;100.00;95164.78;5032577;28;19912;-48
2023/08/27 02:54:11;;;;;;;;;;;19.10;69.90;;;15.10;100.00;95157.81;5033588;28;19909;-46
2023/08/27 02:56:36;;;;;;;;;;;19.10;69.90;;;15.09;100.00;95148.97;5033832;28;19909;-47
2023/08/27 02:59:04;;;;;;;;;;;19.00;69.70;;;15.05;100.00;95145.31;5032345;28;19912;-48
2023/08/27 03:01:30;;;;;;;;;;;19.10;69.80;;;15.04;100.00;95157.94;5016739;28;20001;-46
2023/08/27 03:03:55;;;;;;;;;;;19.00;69.70;;;15.02;100.00;95149.41;5022877;28;19971;-46
2023/08/27 03:06:21;;;;;;;;;;;19.10;69.70;;;15.03;100.00;95144.81;5033615;28;20427;-46
2023/08/27 03:08:47;;;;;;;;;;;19.10;69.70;;;15.03;100.00;95142.16;5033332;28;19909;-50
2023/08/27 03:11:13;;;;;;;;;;;19.00;69.60;;;14.99;100.00;95146.53;5032949;28;19909;-46
2023/08/27 03:13:39;;;;;;;;;;;19.00;69.60;;;15.00;100.00;95145.44;5032890;28;19909;-45
2023/08/27 03:16:04;;;;;;;;;;;19.00;69.70;;;14.98;100.00;95131.56;5012186;28;20368;-47
2023/08/27 03:18:30;;;;;;;;;;;19.00;69.60;;;14.99;100.00;95122.41;5032841;28;19920;-46
2023/08/27 03:20:56;;;;;;;;;;;19.00;69.60;;;14.98;100.00;95115.47;5033235;28;20294;-44
2023/08/27 03:23:22;;;;;;;;;;;19.00;69.60;;;14.97;100.00;95122.69;5032331;28;19909;-46
2023/08/27 03:25:52;;;;;;;;;;;19.00;69.60;;;14.95;100.00;95119.53;5032380;28;19909;-49
2023/08/27 03:28:18;;;;;;;;;;;19.00;69.70;;;14.94;100.00;95114.47;5031410;28;20353;-51
2023/08/27 03:30:43;;;;;;;;;;;19.00;69.60;;;14.92;100.00;95114.78;5032772;28;20066;-51
2023/08/27 03:33:09;;;;;;;;;;;19.00;70.40;;;14.91;100.00;95115.06;5031865;28;20286;-49
2023/08/27 03:35:35;;;;;;;;;;;19.00;69.60;;;14.91;100.00;95109.69;5033293;28;20042;-46
2023/08/27 03:38:01;;;;;;;;;;;19.00;69.60;;;14.89;100.00;95112.69;5032004;28;19913;-49
2023/08/27 03:40:29;;;;;;;;;;;18.90;69.60;;;14.87;100.00;95114.88;5032568;28;19931;-50
2023/08/27 03:42:54;;;;;;;;;;;18.90;69.60;;;14.85;100.00;95111.69;5033040;28;19913;-47
2023/08/27 03:45:20;;;;;;;;;;;18.90;69.60;;;14.83;100.00;95102.41;5034228;28;19913;-47
2023/08/27 03:47:46;;;;;;;;;;;18.90;69.60;;;14.77;100.00;95088.31;5033924;28;19920;-49
2023/08/27 03:50:11;;;;;;;;;;;18.90;69.60;;;14.77;100.00;95075.69;5033125;28;19916;-48
2023/08/27 03:52:37;;;;;;;;;;;18.90;69.60;;;14.67;100.00;95056.38;5031679;28;19910;-47
2023/08/27 03:55:04;;;;;;;;;;;18.90;69.60;;;14.65;100.00;95042.47;5032887;28;19974;-47
2023/08/27 03:57:29;;;;;;;;;;;18.80;69.60;;;14.67;100.00;95045.66;5031559;28;19928;-46
2023/08/27 03:59:55;;;;;;;;;;;18.80;69.60;;;14.61;100.00;95044.97;5033014;28;20351;-46
2023/08/27 04:02:21;;;;;;;;;;;18.80;69.70;;;14.65;100.00;95045.94;5033034;28;20342;-46
2023/08/27 04:04:47;;;;;;;;;;;18.70;69.70;;;14.58;100.00;95046.38;5031495;28;19923;-48
2023/08/27 04:07:13;;;;;;;;;;;18.70;69.70;;;14.62;100.00;95043.06;5032930;28;19908;-49
2023/08/27 04:09:39;;;;;;;;;;;18.70;69.80;;;14.61;100.00;95055.69;5031166;28;19931;-51
2023/08/27 04:12:05;;;;;;;;;;;18.70;69.90;;;14.53;100.00;95049.16;5032231;28;20424;-47
2023/08/27 04:14:31;;;;;;;;;;;18.70;69.90;;;14.55;100.00;95054.22;5031924;28;19916;-48
2023/08/27 04:16:57;;;;;;;;;;;18.70;69.90;;;14.55;100.00;95051.53;5039080;28;19913;-52
2023/08/27 04:19:22;;;;;;;;;;;18.70;69.90;;;14.52;100.00;95047.56;5032389;28;19916;-51
2023/08/27 04:21:48;;;;;;;;;;;18.70;70.00;;;14.46;100.00;95026.53;5031890;28;19992;-50
2023/08/27 04:24:14;;;;;;;;;;;18.70;69.90;;;14.52;100.00;95036.84;5033115;28;19913;-50
2023/08/27 04:26:40;;;;;;;;;;;18.60;69.80;;;14.51;100.00;95054.03;5032019;28;19944;-51
2023/08/27 04:29:06;;;;;;;;;;;18.60;69.80;;;14.50;100.00;95054.28;5030466;28;19909;-50
2023/08/27 04:31:31;;;;;;;;;;;18.60;69.80;;;14.49;100.00;95050.81;5031695;28;19908;-51
2023/08/27 04:33:57;;;;;;;;;;;18.60;69.80;;;14.48;100.00;95041.22;5030483;28;20007;-50
2023/08/27 04:36:23;;;;;;;;;;;18.60;69.80;;;14.44;100.00;95031.38;5032422;28;19909;-48
2023/08/27 04:38:49;;;;;;;;;;;18.60;69.80;;;14.39;100.00;95026.94;5035168;28;19963;-47
2023/08/27 04:41:15;;;;;;;;;;;18.60;69.80;;;14.34;100.00;95030.50;5034156;28;20362;-47
2023/08/27 04:43:40;;;;;;;;;;;18.60;69.70;;;14.41;100.00;95037.34;5035613;28;20019;-48
2023/08/27 04:46:06;;;;;;;;;;;18.50;69.70;;;14.45;100.00;95035.66;5035903;28;19954;-46
2023/08/27 04:48:32;;;;;;;;;;;18.60;69.80;;;14.47;100.00;95033.47;5034703;28;19917;-45
2023/08/27 04:50:58;;;;;;;;;;;18.50;69.70;;;14.46;100.00;95040.72;5035484;28;20439;-46
2023/08/27 04:53:26;;;;;;;;;;;18.60;69.80;;;14.46;100.00;95034.56;5033814;28;19965;-47
2023/08/27 04:55:53;;;;;;;;;;;18.60;69.70;;;14.43;100.00;95029.81;5034792;28;19912;-45
2023/08/27 04:58:19;;;;;;;;;;;18.50;69.60;;;14.39;100.00;95020.78;5033878;28;19919;-43
2023/08/27 05:00:44;;;;;;;;;;;18.50;69.50;;;14.40;100.00;95036.56;5034843;28;20286;-45
2023/08/27 05:03:10;;;;;;;;;;;18.60;69.60;;;14.38;100.00;95054.03;5033600;28;20252;-44
2023/08/27 05:05:36;;;;;;;;;;;18.50;69.50;;;14.40;100.00;95049.16;5037399;28;20311;-45
2023/08/27 05:08:02;;;;;;;;;;;18.50;69.40;;;14.38;100.00;95046.78;5023740;28;19909;-44
2023/08/27 05:10:29;;;;;;;;;;;18.50;69.40;;;14.35;100.00;95045.50;5024858;28;20268;-44
2023/08/27 05:12:54;;;;;;;;;;;18.60;69.50;;;14.31;100.00;95016.94;5034985;28;20378;-46
2023/08/27 05:15:20;;;;;;;;;;;18.50;69.30;;;14.33;100.00;95018.22;5032665;28;19963;-43
2023/08/27 05:17:48;;;;;;;;;;;18.60;70.10;;;14.33;100.00;95015.53;5042234;28;19939;-44
2023/08/27 05:20:15;;;;;;;;;;;18.60;69.30;;;14.25;100.00;95018.91;5034278;28;20482;-44
2023/08/27 05:22:41;;;;;;;;;;;18.70;69.30;;;14.29;100.00;95011.88;5033348;28;19909;-43
2023/08/27 05:25:09;;;;;;;;;;;18.70;69.20;;;14.33;100.00;95007.50;5034349;28;19909;-48
2023/08/27 05:27:35;;;;;;;;;;;18.70;69.20;;;14.36;100.00;95008.78;5033547;28;20367;-44
2023/08/27 05:30:01;;;;;;;;;;;18.70;69.90;;;14.38;100.00;95024.53;5034238;28;19916;-45
2023/08/27 05:32:27;;;;;;;;;;;18.80;69.10;;;14.35;100.00;95032.13;5034289;28;20005;-43
2023/08/27 05:34:54;;;;;;;;;;;18.80;69.00;;;14.34;100.00;95027.81;5032876;28;20019;-43
2023/08/27 05:37:19;;;;;;;;;;;18.80;69.00;;;14.41;100.00;95035.44;5016583;28;19913;-44
2023/08/27 05:39:45;;;;;;;;;;;18.70;68.90;;;14.40;100.00;95033.09;5033063;28;20294;-47
2023/08/27 05:42:11;;;;;;;;;;;18.80;69.00;;;14.39;100.00;95034.97;5034360;28;19964;-48
2023/08/27 05:44:37;;;;;;;;;;;18.80;68.90;;;14.40;100.00;95025.84;5034092;28;19956;-44
2023/08/27 05:47:03;;;;;;;;;;;18.70;68.90;;;14.44;100.00;95039.41;5036448;28;20335;-46
2023/08/27 05:49:28;;;;;;;;;;;18.80;68.90;;;14.45;100.00;95041.03;5032947;28;19915;-44
2023/08/27 05:51:54;;;;;;;;;;;18.80;68.90;;;14.46;100.00;95045.28;5032507;28;19915;-46
2023/08/27 05:54:20;;;;;;;;;;;18.80;68.90;;;14.43;100.00;95038.63;5033778;28;20283;-46
2023/08/27 05:56:46;;;;;;;;;;;18.80;68.90;;;14.43;100.00;95044.00;5033776;28;19909;-44
2023/08/27 05:59:14;;;;;;;;;;;18.80;68.90;;;14.42;100.00;95034.38;5032850;28;19909;-46
2023/08/27 06:01:41;;;;;;;;;;;18.80;68.80;;;14.44;100.00;95031.38;5033483;28;19959;-43
2023/08/27 06:04:08;;;;;;;;;;;18.90;68.80;;;14.47;100.00;95020.06;5032040;28;19908;-46
2023/08/27 06:06:36;;;;;;;;;;;18.90;68.70;;;14.50;100.00;95022.13;5033412;28;19912;-44
2023/08/27 06:09:03;;;;;;;;;;;19.00;68.60;;;14.51;100.00;95016.53;5020121;28;19954;-44
2023/08/27 06:11:29;;;;;;;;;;;19.10;68.50;;;14.53;100.00;95008.94;5032875;28;19909;-43
2023/08/27 06:13:55;;;;;;;;;;;19.10;68.30;;;14.56;100.00;95011.03;5033362;28;20322;-43
2023/08/27 06:16:20;;;;;;;;;;;19.20;68.30;;;14.57;100.00;95023.34;5041881;28;20370;-44
2023/08/27 06:18:46;;;;;;;;;;;19.20;68.30;;;14.62;100.00;95027.00;5034022;28;19913;-43
2023/08/27 06:21:12;;;;;;;;;;;19.20;68.40;;;14.64;100.00;95030.97;5032657;28;19919;-45
2023/08/27 06:23:37;;;;;;;;;;;19.20;68.40;;;14.71;100.00;95033.22;5033429;28;20011;-45
2023/08/27 06:26:04;;;;;;;;;;;19.30;68.50;;;14.75;100.00;95021.56;5032986;28;20303;-45
2023/08/27 06:28:30;;;;;;;;;;;19.40;68.40;;;14.81;100.00;95019.56;5031686;28;19931;-44
2023/08/27 06:30:56;;;;;;;;;;;19.40;68.30;;;14.90;100.00;95004.34;5033578;28;19909;-47
2023/08/27 06:33:21;;;;;;;;;;;19.60;68.30;;;14.98;100.00;95008.19;5013999;28;19938;-47
2023/08/27 06:35:48;;;;;;;;;;;19.70;68.20;;;15.08;100.00;95015.19;5033052;28;19913;-44
2023/08/27 06:38:14;;;;;;;;;;;19.80;68.20;;;15.16;100.00;95011.75;5026202;28;19921;-43
2023/08/27 06:40:40;;;;;;;;;;;19.80;68.10;;;15.19;100.00;95013.81;5031370;28;19916;-46
2023/08/27 06:43:06;;;;;;;;;;;19.90;68.10;;;15.26;100.00;95006.13;5031189;28;19909;-49
2023/08/27 06:45:31;;;;;;;;;;;20.00;68.00;;;15.30;100.00;95006.31;5031495;28;19934;-43
2023/08/27 06:47:57;;;;;;;;;;;20.00;67.90;;;15.37;100.00;95001.28;5028442;28;20291;-44
2023/08/27 06:50:23;;;;;;;;;;;20.10;67.80;;;15.37;100.00;95003.97;5021701;28;19916;-44
2023/08/27 06:52:49;;;;;;;;;;;20.20;67.80;;;15.43;100.00;95027.69;5029152;28;19916;-45
2023/08/27 06:55:14;;;;;;;;;;;20.20;67.70;;;15.44;100.00;95036.53;5030555;28;20007;-45
2023/08/27 06:57:40;;;;;;;;;;;20.20;67.60;;;15.44;100.00;95048.03;5033961;28;19920;-45
2023/08/27 07:00:12;;;;;;;;;;;20.20;67.60;;;15.46;100.00;95061.16;5030147;28;20287;-47
2023/08/27 07:02:38;;;;;;;;;;;20.20;67.50;;;15.47;100.00;95052.78;5028620;28;19909;-44
2023/08/27 07:05:11;;;;;;;;;;;20.20;67.50;;;15.49;100.00;95052.50;5029684;28;19920;-45
2023/08/27 07:07:38;;;;;;;;;;;20.20;67.50;;;15.45;100.00;95055.00;5028908;28;20391;-44
2023/08/27 07:10:05;;;;;;;;;;;20.20;67.40;;;15.48;100.00;95067.00;5029827;28;20256;-44
2023/08/27 07:12:35;;;;;;;;;;;20.20;67.40;;;15.50;100.00;95068.28;5030729;28;20319;-46
2023/08/27 07:15:03;;;;;;;;;;;20.20;67.40;;;15.54;100.00;95063.09;5030704;28;20272;-44
2023/08/27 07:17:28;;;;;;;;;;;20.20;67.30;;;15.50;100.00;95054.06;5032059;28;19962;-43
2023/08/27 07:19:55;;;;;;;;;;;20.20;67.30;;;15.57;100.00;95048.25;5029985;28;19913;-46
2023/08/27 07:22:21;;;;;;;;;;;20.30;67.20;;;15.61;100.00;95058.09;5029895;28;19909;-44
2023/08/27 07:24:46;;;;;;;;;;;20.50;67.30;;;15.68;100.00;95045.03;5031272;28;19909;-43
2023/08/27 07:27:12;;;;;;;;;;;20.50;67.00;;;15.73;100.00;95036.84;5029784;28;19909;-44
2023/08/27 07:29:38;;;;;;;;;;;20.60;66.90;;;15.80;100.00;95036.41;5035516;28;19909;-44
2023/08/27 07:32:04;;;;;;;;;;;20.70;66.90;;;15.87;100.00;95038.63;5031450;28;19949;-44
2023/08/27 07:34:31;;;;;;;;;;;20.80;66.70;;;15.92;100.00;95033.13;5029444;28;20317;-45
2023/08/27 07:36:56;;;;;;;;;;;20.90;66.60;;;16.03;100.00;95041.69;5030720;28;19916;-44
2023/08/27 07:39:22;;;;;;;;;;;21.00;66.40;;;16.09;100.00;95041.22;5028399;28;20383;-43
2023/08/27 07:41:49;;;;;;;;;;;21.10;66.30;;;16.20;100.00;95052.47;5024553;28;19958;-43
2023/08/27 07:44:18;;;;;;;;;;;21.30;66.10;;;16.33;100.00;95053.47;5031740;28;19997;-44
2023/08/27 07:46:44;;;;;;;;;;;21.40;66.00;;;16.49;100.00;95061.88;5031312;28;19913;-44
2023/08/27 07:49:10;;;;;;;;;;;21.60;65.90;;;16.62;100.00;95067.09;5020653;28;20311;-43
2023/08/27 07:51:36;;;;;;;;;;;21.80;65.80;;;16.75;100.00;95060.00;5027201;28;20305;-44
2023/08/27 07:54:03;;;;;;;;;;;22.00;65.70;;;16.84;100.00;95068.09;5024006;28;19909;-45
2023/08/27 07:56:29;;;;;;;;;;;22.10;65.40;;;16.95;100.00;95068.56;5021692;28;20007;-44
2023/08/27 07:58:55;;;;;;;;;;;22.30;65.20;;;17.06;100.00;95059.84;5024832;28;19959;-44
2023/08/27 08:01:30;;;;;;;;;;;22.40;65.00;;;17.16;100.00;95074.09;5011339;28;19909;-45
2023/08/27 08:03:56;;;;;;;;;;;22.50;64.90;;;17.17;99.72;95079.13;5017154;28;19916;-43
2023/08/27 08:06:22;;;;;;;;;;;22.60;64.60;;;17.36;100.00;95084.22;5023454;28;19913;-43
2023/08/27 08:08:48;;;;;;;;;;;22.70;64.40;;;17.38;97.43;95092.72;5016309;28;19970;-45
2023/08/27 08:11:13;;;;;;;;;;;22.70;64.30;;;17.47;97.73;95090.03;5031591;28;20410;-48
2023/08/27 08:13:41;;;;;;;;;;;22.80;64.10;;;17.57;97.04;95068.16;5035427;28;19912;-47
2023/08/27 08:16:07;;;;;;;;;;;22.90;64.00;;;17.70;94.48;95071.75;5029748;28;19916;-45
2023/08/27 08:18:33;;;;;;;;;;;23.00;63.90;;;17.77;92.92;95078.28;5031283;28;20342;-44
2023/08/27 08:21:00;;;;;;;;;;;23.20;63.70;;;17.90;93.19;95073.00;5027282;28;19909;-47
2023/08/27 08:23:25;;;;;;;;;;;23.40;63.50;;;18.01;92.84;95063.41;5034434;28;19913;-45
2023/08/27 08:25:52;;;;;;;;;;;23.50;63.20;;;18.18;92.80;95060.66;5027909;28;19935;-44
2023/08/27 08:28:18;;;;;;;;;;;23.70;62.90;;;18.31;88.36;95044.56;5019686;28;19916;-44
2023/08/27 08:30:49;;;;;;;;;;;24.00;62.60;;;18.37;86.07;95037.88;5020996;28;19967;-46
2023/08/27 08:33:18;;;;;;;;;;;24.20;62.10;;;18.52;87.58;95036.50;5022980;28;19924;-46
2023/08/27 08:35:44;;;;;;;;;;;24.30;61.90;;;18.57;90.42;95039.78;5034682;28;19936;-46
2023/08/27 08:38:11;;;;;;;;;;;24.40;61.70;;;18.68;86.75;95038.28;5026092;28;19994;-45
2023/08/27 08:40:45;;;;;;;;;;;24.40;61.50;;;18.77;85.45;95040.97;5026110;28;19915;-44
2023/08/27 08:43:25;;;;;;;;;;;24.40;61.20;;;18.79;85.47;95051.41;5021117;28;20497;-45
2023/08/27 08:46:06;;;;;;;;;;;24.50;61.30;;;18.82;84.48;95062.31;5031516;28;19909;-48
2023/08/27 08:48:41;;;;;;;;;;;24.50;61.00;;;18.92;83.75;95067.31;5012483;28;19940;-46
2023/08/27 08:51:13;;;;;;;;;;;24.60;60.80;;;18.95;82.82;95063.19;5013355;28;19909;-47
2023/08/27 08:53:50;;;;;;;;;;;24.70;60.60;;;18.90;81.38;95049.91;5005881;28;19909;-46
2023/08/27 08:56:39;;;;;;;;;;;24.80;60.40;;;18.96;83.20;95048.59;4987992;28;19909;-46
2023/08/27 08:59:07;;;;;;;;;;;24.90;60.10;;;19.18;86.89;95055.53;4994262;28;20380;-48
2023/08/27 09:01:34;;;;;;;;;;;24.90;60.00;;;19.10;78.23;95045.59;5013480;28;19916;-47
2023/08/27 09:04:01;;;;;;;;;;;25.00;59.90;;;19.12;80.31;95044.16;4993204;28;19909;-43
2023/08/27 09:06:27;;;;;;;;;;;24.90;59.70;;;19.13;79.27;95040.31;4987538;28;19909;-45
2023/08/27 09:08:55;;;;;;;;;;;24.90;59.60;;;19.00;77.33;95037.91;5012523;28;19909;-43
2023/08/27 09:11:24;;;;;;;;;;;24.80;59.50;;;19.04;80.05;95036.91;5012398;28;20032;-45
2023/08/27 09:13:51;;;;;;;;;;;24.80;59.40;;;19.09;81.56;95036.72;5013315;28;19941;-45
2023/08/27 09:16:17;;;;;;;;;;;24.70;59.30;;;19.05;80.99;95040.38;4995293;28;20313;-44
2023/08/27 09:18:42;;;;;;;;;;;24.70;59.30;;;19.03;80.08;95043.44;5011463;28;19913;-49
2023/08/27 09:21:08;;;;;;;;;;;24.60;59.30;;;19.05;83.45;95043.09;5012001;28;20011;-45
2023/08/27 09:23:37;;;;;;;;;;;24.50;59.20;;;19.13;86.39;95043.03;5013169;28;19975;-44
2023/08/27 09:26:05;;;;;;;;;;;24.60;59.80;;;19.05;79.86;95035.78;5014513;28;19913;-45
2023/08/27 09:28:35;;;;;;;;;;;24.70;59.20;;;19.08;79.55;95027.00;5010444;28;19964;-44
2023/08/27 09:31:01;;;;;;;;;;;24.80;58.90;;;19.03;80.93;95027.25;5013449;28;19967;-44
2023/08/27 09:33:41;;;;;;;;;;;25.00;58.70;;;19.19;77.97;95019.31;4998624;28;19917;-44
2023/08/27 09:36:09;;;;;;;;;;;25.20;58.50;;;19.41;79.62;95018.13;5011694;28;19909;-47
2023/08/27 09:38:36;;;;;;;;;;;25.40;58.20;;;19.61;79.98;95017.25;5007566;28;19913;-46
2023/08/27 09:41:17;;;;;;;;;;;25.60;58.20;;;19.78;84.96;95024.41;5011102;28;19908;-46
2023/08/27 09:43:53;;;;;;;;;;;25.80;58.00;;;19.82;76.68;95019.13;5011539;28;19917;-45
2023/08/27 09:46:20;;;;;;;;;;;26.10;57.80;;;19.97;78.25;95018.47;5010224;28;20257;-48
2023/08/27 09:49:01;;;;;;;;;;;26.30;57.60;;;20.05;74.40;95025.66;4997630;28;19917;-45
2023/08/27 09:51:29;;;;;;;;;;;26.40;57.20;;;20.14;76.93;95017.44;5011712;28;19975;-48
2023/08/27 09:53:55;;;;;;;;;;;26.50;56.80;;;20.28;79.65;95015.19;5002627;28;20436;-45
2023/08/27 09:56:26;;;;;;;;;;;26.70;56.80;;;20.18;74.24;95022.94;5017986;28;19936;-44
2023/08/27 09:58:54;;;;;;;;;;;26.80;56.70;;;20.32;75.28;95026.09;5008463;28;19921;-45
2023/08/27 10:01:21;;;;;;;;;;;26.90;56.50;;;20.49;73.67;95031.25;5004222;28;19955;-45
2023/08/27 10:03:48;;;;;;;;;;;27.00;56.40;;;20.65;72.33;95023.28;5009223;28;20020;-45
2023/08/27 10:06:14;;;;;;;;;;;27.10;56.20;;;20.83;74.49;95029.19;4994350;28;19972;-44
2023/08/27 10:08:53;;;;;;;;;;;27.30;56.10;;;20.90;72.91;95032.09;5010869;28;19913;-45
2023/08/27 10:11:22;;;;;;;;;;;27.40;55.80;;;20.77;71.47;95038.66;5002063;28;19909;-44
2023/08/27 10:13:48;;;;;;;;;;;27.50;55.70;;;20.79;73.50;95044.53;5007820;28;19952;-45
2023/08/27 10:16:15;;;;;;;;;;;27.50;55.50;;;20.30;69.73;95050.75;4983739;28;19913;-46
2023/08/27 10:18:42;;;;;;;;;;;27.40;55.30;;;20.30;73.56;95049.97;4999954;28;19913;-44
2023/08/27 10:21:08;;;;;;;;;;;27.20;55.20;;;20.42;74.55;95049.19;5013686;28;20395;-48
2023/08/27 10:23:38;;;;;;;;;;;27.00;55.30;;;20.24;74.85;95057.53;5012794;28;20011;-44
2023/08/27 10:26:05;;;;;;;;;;;26.80;55.30;;;20.29;75.13;95059.22;5013719;28;19948;-45
2023/08/27 10:28:35;;;;;;;;;;;26.60;55.50;;;20.19;74.02;95067.81;5008113;28;19909;-45
2023/08/27 10:31:05;;;;;;;;;;;26.40;55.40;;;20.19;74.10;95078.63;5013375;28;19916;-43
2023/08/27 10:33:31;;;;;;;;;;;26.20;55.50;;;20.11;76.58;95074.88;5011969;28;19977;-45
2023/08/27 10:36:11;;;;;;;;;;;26.10;55.70;;;20.03;77.28;95063.06;5000456;28;19916;-44
2023/08/27 10:38:40;;;;;;;;;;;25.90;55.70;;;19.89;77.01;95062.59;4993663;28;19920;-48
2023/08/27 10:41:06;;;;;;;;;;;25.80;55.80;;;19.92;76.21;95061.13;4990477;28;19994;-45
2023/08/27 10:43:36;;;;;;;;;;;25.70;55.90;;;19.86;72.94;95060.56;4991708;28;26672;-44
2023/08/27 10:46:17;;;;;;;;;;;25.60;55.90;;;19.77;73.53;95057.16;5004209;28;19967;-47
2023/08/27 10:48:54;;;;;;;;;;;25.50;55.70;;;19.75;72.98;95057.50;5022224;28;19923;-47
2023/08/27 10:51:27;;;;;;;;;;;25.50;55.80;;;19.79;73.94;95065.72;5028673;23;20310;-46
2023/08/27 10:53:59;;;;;;;;;;;25.40;55.80;;;19.85;73.30;95062.47;4995486;28;20011;-46
2023/08/27 10:56:39;;;;;;;;;;;25.40;55.80;;;19.75;71.14;95060.22;5009836;28;19916;-49
2023/08/27 10:59:26;;;;;;;;;;;25.40;55.70;;;19.63;71.34;95068.25;5003733;28;19913;-46
2023/08/27 11:02:09;;;;;;;;;;;25.40;55.50;;;19.70;72.02;95068.53;4999342;28;19916;-47
2023/08/27 11:04:39;;;;;;;;;;;25.50;55.50;;;19.78;75.51;95062.25;4992443;28;20012;-46
2023/08/27 11:07:17;;;;;;;;;;;25.50;55.50;;;19.90;72.25;95060.66;4992243;28;19917;-49
2023/08/27 11:10:04;;;;;;;;;;;25.60;55.40;;;20.04;72.93;95059.22;4989241;28;19917;-49
2023/08/27 11:12:36;;;;;;;;;;;25.70;55.30;;;20.00;69.68;95063.75;4992520;28;20375;-47
2023/08/27 11:15:14;;;;;;;;;;;25.80;55.10;;;20.05;73.81;95051.91;4992088;28;19955;-48